Main page
METAR-TAF:

METAR-TAF

Airports :

Cascais Municipal Aerodrome

Cascais, Portugal

latitude: 38-43-32N, longitude: 009-21-19W, elevation: 99 m

Current weather observation

The report was made 4 hours and 20 minutes ago, at 19:30 UTC
Wind 5 kt from the North
Temperature 17°C
Humidity 77%
Pressure 1024 hPa
Visibility 10 km or more
Few clouds at a height of 1500 ft
Broken clouds at a height of 3000 ft

METAR: LPCS 281930Z 01005KT 9999 FEW015 BKN030 17/13 Q1024

Time: 23:50 (23:50 UTC)

Forecast

The report was made 9 hours and 50 minutes ago, at 14:00 UTC
Forecast valid from 28 at 15 UTC to 28 at 24 UTC
Wind 7 kt from the Southeast
Visibility 10 km or more
Few clouds at a height of 1800 ft
Scattered clouds at a height of 3000 ft
Becoming
from 28 at 15 UTC to 28 at 17 UTC
Wind 10 kt from the North/Northwest

TAF: LPCS 281400Z 2815/2824 13007KT 9999 FEW018 SCT030 BECMG 2815/2817 34010KT

Weather observations and forecasts of more than 4000 airports (METAR and TAF reports).

The available stations are represented by yellow and red dots on the map.

Hover mouse over dot to see the name of the station.

Then click to see weather observations and forecasts.

To change the map : click on the green buttons with a black cross to zoom in, on the green button with a dash to zoom out, or on the green arrows for adjacent maps.


METAR-TAF: